sensor_id;sensor_type;location;lat;lon;timestamp;P1;durP1;ratioP1;P2;durP2;ratioP2
15706;SDS011;7953;54.302;10.128;2022-08-25T00:01:44;3.97;;;3.17;;
15706;SDS011;7953;54.302;10.128;2022-08-25T00:04:13;3.17;;;2.77;;
15706;SDS011;7953;54.302;10.128;2022-08-25T00:06:41;4.90;;;2.90;;
15706;SDS011;7953;54.302;10.128;2022-08-25T00:09:10;4.37;;;3.20;;
15706;SDS011;7953;54.302;10.128;2022-08-25T00:11:39;4.60;;;2.90;;
15706;SDS011;7953;54.302;10.128;2022-08-25T00:14:09;4.70;;;3.17;;
15706;SDS011;7953;54.302;10.128;2022-08-25T00:16:37;4.60;;;3.13;;
15706;SDS011;7953;54.302;10.128;2022-08-25T00:19:05;4.60;;;3.10;;
15706;SDS011;7953;54.302;10.128;2022-08-25T00:21:34;4.93;;;3.30;;
15706;SDS011;7953;54.302;10.128;2022-08-25T00:24:02;3.20;;;2.90;;
15706;SDS011;7953;54.302;10.128;2022-08-25T00:26:30;4.37;;;3.27;;
15706;SDS011;7953;54.302;10.128;2022-08-25T00:28:58;4.90;;;3.40;;
15706;SDS011;7953;54.302;10.128;2022-08-25T00:31:25;6.53;;;3.43;;
15706;SDS011;7953;54.302;10.128;2022-08-25T00:33:52;5.30;;;2.97;;
15706;SDS011;7953;54.302;10.128;2022-08-25T00:36:20;5.80;;;3.07;;
15706;SDS011;7953;54.302;10.128;2022-08-25T00:38:47;3.40;;;3.10;;
15706;SDS011;7953;54.302;10.128;2022-08-25T00:41:15;3.10;;;2.80;;
15706;SDS011;7953;54.302;10.128;2022-08-25T00:43:46;3.43;;;3.00;;
15706;SDS011;7953;54.302;10.128;2022-08-25T00:46:17;8.70;;;3.50;;
15706;SDS011;7953;54.302;10.128;2022-08-25T00:48:46;6.57;;;3.57;;
15706;SDS011;7953;54.302;10.128;2022-08-25T00:51:17;5.33;;;3.03;;
15706;SDS011;7953;54.302;10.128;2022-08-25T00:53:48;5.33;;;3.40;;
15706;SDS011;7953;54.302;10.128;2022-08-25T00:56:15;3.97;;;2.90;;
15706;SDS011;7953;54.302;10.128;2022-08-25T00:58:43;7.10;;;2.77;;
15706;SDS011;7953;54.302;10.128;2022-08-25T01:01:10;3.23;;;2.93;;
15706;SDS011;7953;54.302;10.128;2022-08-25T01:03:38;4.37;;;2.97;;
15706;SDS011;7953;54.302;10.128;2022-08-25T01:06:05;7.70;;;3.67;;
15706;SDS011;7953;54.302;10.128;2022-08-25T01:08:34;3.50;;;2.87;;
15706;SDS011;7953;54.302;10.128;2022-08-25T01:11:02;3.83;;;3.07;;
15706;SDS011;7953;54.302;10.128;2022-08-25T01:13:33;4.03;;;3.40;;
15706;SDS011;7953;54.302;10.128;2022-08-25T01:16:02;4.43;;;3.10;;
15706;SDS011;7953;54.302;10.128;2022-08-25T01:18:42;4.23;;;2.83;;
15706;SDS011;7953;54.302;10.128;2022-08-25T01:21:13;6.77;;;3.67;;
15706;SDS011;7953;54.302;10.128;2022-08-25T01:23:42;3.57;;;3.27;;
15706;SDS011;7953;54.302;10.128;2022-08-25T01:26:11;4.17;;;3.43;;
15706;SDS011;7953;54.302;10.128;2022-08-25T01:28:39;6.77;;;3.10;;
15706;SDS011;7953;54.302;10.128;2022-08-25T01:31:28;3.53;;;3.23;;
15706;SDS011;7953;54.302;10.128;2022-08-25T01:33:55;4.67;;;3.07;;
15706;SDS011;7953;54.302;10.128;2022-08-25T01:36:25;5.17;;;3.10;;
15706;SDS011;7953;54.302;10.128;2022-08-25T01:38:53;6.40;;;3.67;;
15706;SDS011;7953;54.302;10.128;2022-08-25T01:41:25;9.63;;;3.67;;
15706;SDS011;7953;54.302;10.128;2022-08-25T01:44:00;4.87;;;2.80;;
15706;SDS011;7953;54.302;10.128;2022-08-25T01:46:31;4.07;;;3.10;;
15706;SDS011;7953;54.302;10.128;2022-08-25T01:48:58;6.27;;;3.17;;
15706;SDS011;7953;54.302;10.128;2022-08-25T01:51:29;5.07;;;3.50;;
15706;SDS011;7953;54.302;10.128;2022-08-25T01:54:02;4.63;;;3.30;;
15706;SDS011;7953;54.302;10.128;2022-08-25T01:56:29;4.17;;;3.40;;
15706;SDS011;7953;54.302;10.128;2022-08-25T01:58:56;4.80;;;3.20;;
15706;SDS011;7953;54.302;10.128;2022-08-25T02:01:23;5.77;;;3.80;;
15706;SDS011;7953;54.302;10.128;2022-08-25T02:03:51;5.03;;;3.60;;
15706;SDS011;7953;54.302;10.128;2022-08-25T02:06:21;5.27;;;3.63;;
15706;SDS011;7953;54.302;10.128;2022-08-25T02:08:52;3.90;;;3.50;;
15706;SDS011;7953;54.302;10.128;2022-08-25T02:11:21;3.93;;;3.43;;
15706;SDS011;7953;54.302;10.128;2022-08-25T02:13:48;5.20;;;3.33;;
15706;SDS011;7953;54.302;10.128;2022-08-25T02:16:17;4.23;;;3.47;;
15706;SDS011;7953;54.302;10.128;2022-08-25T02:18:48;5.17;;;3.50;;
15706;SDS011;7953;54.302;10.128;2022-08-25T02:21:15;4.90;;;3.40;;
15706;SDS011;7953;54.302;10.128;2022-08-25T02:23:42;6.27;;;3.60;;
15706;SDS011;7953;54.302;10.128;2022-08-25T02:26:10;3.50;;;3.20;;
15706;SDS011;7953;54.302;10.128;2022-08-25T02:28:40;6.23;;;3.97;;
15706;SDS011;7953;54.302;10.128;2022-08-25T02:31:07;6.37;;;3.63;;
15706;SDS011;7953;54.302;10.128;2022-08-25T02:33:34;3.83;;;3.53;;
15706;SDS011;7953;54.302;10.128;2022-08-25T02:36:02;3.67;;;3.43;;
15706;SDS011;7953;54.302;10.128;2022-08-25T02:38:29;3.70;;;3.40;;
15706;SDS011;7953;54.302;10.128;2022-08-25T02:40:57;4.27;;;3.33;;
15706;SDS011;7953;54.302;10.128;2022-08-25T02:43:26;3.57;;;3.27;;
15706;SDS011;7953;54.302;10.128;2022-08-25T02:45:54;5.70;;;3.70;;
15706;SDS011;7953;54.302;10.128;2022-08-25T02:48:21;4.77;;;3.80;;
15706;SDS011;7953;54.302;10.128;2022-08-25T02:50:49;4.73;;;3.93;;
15706;SDS011;7953;54.302;10.128;2022-08-25T02:53:17;4.17;;;3.77;;
15706;SDS011;7953;54.302;10.128;2022-08-25T02:55:44;5.97;;;3.97;;
15706;SDS011;7953;54.302;10.128;2022-08-25T02:58:11;5.93;;;4.57;;
15706;SDS011;7953;54.302;10.128;2022-08-25T03:00:39;4.33;;;3.83;;
15706;SDS011;7953;54.302;10.128;2022-08-25T03:03:06;6.70;;;3.93;;
15706;SDS011;7953;54.302;10.128;2022-08-25T03:05:33;6.63;;;3.93;;
15706;SDS011;7953;54.302;10.128;2022-08-25T03:08:00;4.70;;;3.60;;
15706;SDS011;7953;54.302;10.128;2022-08-25T03:10:27;4.10;;;3.50;;
15706;SDS011;7953;54.302;10.128;2022-08-25T03:12:55;4.83;;;4.03;;
15706;SDS011;7953;54.302;10.128;2022-08-25T03:15:21;4.47;;;3.47;;
15706;SDS011;7953;54.302;10.128;2022-08-25T03:17:52;4.50;;;4.10;;
15706;SDS011;7953;54.302;10.128;2022-08-25T03:20:20;6.37;;;4.20;;
15706;SDS011;7953;54.302;10.128;2022-08-25T03:22:48;5.60;;;4.00;;
15706;SDS011;7953;54.302;10.128;2022-08-25T03:25:16;4.53;;;3.80;;
15706;SDS011;7953;54.302;10.128;2022-08-25T03:28:01;6.57;;;3.73;;
15706;SDS011;7953;54.302;10.128;2022-08-25T03:30:29;3.90;;;3.43;;
15706;SDS011;7953;54.302;10.128;2022-08-25T03:32:57;4.17;;;3.80;;
15706;SDS011;7953;54.302;10.128;2022-08-25T03:35:24;6.87;;;3.87;;
15706;SDS011;7953;54.302;10.128;2022-08-25T03:37:53;4.60;;;4.20;;
15706;SDS011;7953;54.302;10.128;2022-08-25T03:40:21;3.97;;;3.53;;
15706;SDS011;7953;54.302;10.128;2022-08-25T03:42:48;4.80;;;4.00;;
15706;SDS011;7953;54.302;10.128;2022-08-25T03:45:17;4.27;;;3.87;;
15706;SDS011;7953;54.302;10.128;2022-08-25T03:47:45;5.60;;;4.10;;
15706;SDS011;7953;54.302;10.128;2022-08-25T03:50:15;5.17;;;3.80;;
15706;SDS011;7953;54.302;10.128;2022-08-25T03:52:44;5.80;;;4.23;;
15706;SDS011;7953;54.302;10.128;2022-08-25T03:55:15;6.73;;;4.10;;
15706;SDS011;7953;54.302;10.128;2022-08-25T03:57:42;5.20;;;4.13;;
15706;SDS011;7953;54.302;10.128;2022-08-25T04:00:10;10.20;;;4.67;;
15706;SDS011;7953;54.302;10.128;2022-08-25T04:02:37;7.07;;;4.53;;
15706;SDS011;7953;54.302;10.128;2022-08-25T04:05:04;6.20;;;4.57;;
15706;SDS011;7953;54.302;10.128;2022-08-25T04:07:33;6.67;;;4.37;;
15706;SDS011;7953;54.302;10.128;2022-08-25T04:10:00;5.77;;;4.70;;
15706;SDS011;7953;54.302;10.128;2022-08-25T04:12:28;5.63;;;4.57;;
15706;SDS011;7953;54.302;10.128;2022-08-25T04:14:54;5.60;;;4.97;;
15706;SDS011;7953;54.302;10.128;2022-08-25T04:17:22;7.80;;;5.03;;
15706;SDS011;7953;54.302;10.128;2022-08-25T04:19:48;5.53;;;5.03;;
15706;SDS011;7953;54.302;10.128;2022-08-25T04:22:16;5.97;;;5.07;;
15706;SDS011;7953;54.302;10.128;2022-08-25T04:24:45;4.70;;;4.20;;
15706;SDS011;7953;54.302;10.128;2022-08-25T04:27:12;6.27;;;4.63;;
15706;SDS011;7953;54.302;10.128;2022-08-25T04:29:39;8.07;;;5.70;;
15706;SDS011;7953;54.302;10.128;2022-08-25T04:32:06;5.37;;;4.37;;
15706;SDS011;7953;54.302;10.128;2022-08-25T04:34:33;5.27;;;4.77;;
15706;SDS011;7953;54.302;10.128;2022-08-25T04:37:01;5.60;;;4.27;;
15706;SDS011;7953;54.302;10.128;2022-08-25T04:39:30;6.20;;;4.63;;
15706;SDS011;7953;54.302;10.128;2022-08-25T04:41:58;5.73;;;4.93;;
15706;SDS011;7953;54.302;10.128;2022-08-25T04:44:26;6.00;;;4.60;;
15706;SDS011;7953;54.302;10.128;2022-08-25T04:46:53;8.03;;;4.97;;
15706;SDS011;7953;54.302;10.128;2022-08-25T04:49:20;6.10;;;5.43;;
15706;SDS011;7953;54.302;10.128;2022-08-25T04:51:47;7.17;;;6.47;;
15706;SDS011;7953;54.302;10.128;2022-08-25T04:54:15;7.50;;;6.80;;
15706;SDS011;7953;54.302;10.128;2022-08-25T04:56:45;7.13;;;6.20;;
15706;SDS011;7953;54.302;10.128;2022-08-25T04:59:15;9.70;;;7.77;;
15706;SDS011;7953;54.302;10.128;2022-08-25T05:01:42;9.53;;;7.07;;
15706;SDS011;7953;54.302;10.128;2022-08-25T05:04:11;8.70;;;6.90;;
15706;SDS011;7953;54.302;10.128;2022-08-25T05:06:40;11.00;;;7.87;;
15706;SDS011;7953;54.302;10.128;2022-08-25T05:09:07;13.40;;;8.90;;
15706;SDS011;7953;54.302;10.128;2022-08-25T05:11:34;8.73;;;7.43;;
15706;SDS011;7953;54.302;10.128;2022-08-25T05:14:02;11.50;;;9.00;;
15706;SDS011;7953;54.302;10.128;2022-08-25T05:16:31;10.97;;;8.40;;
15706;SDS011;7953;54.302;10.128;2022-08-25T05:18:57;11.17;;;8.67;;
15706;SDS011;7953;54.302;10.128;2022-08-25T05:21:25;12.77;;;7.53;;
15706;SDS011;7953;54.302;10.128;2022-08-25T05:23:53;10.80;;;9.00;;
15706;SDS011;7953;54.302;10.128;2022-08-25T05:26:22;11.13;;;9.23;;
15706;SDS011;7953;54.302;10.128;2022-08-25T05:28:51;8.73;;;7.77;;
15706;SDS011;7953;54.302;10.128;2022-08-25T05:31:19;11.30;;;7.90;;
15706;SDS011;7953;54.302;10.128;2022-08-25T05:33:49;8.43;;;7.40;;
15706;SDS011;7953;54.302;10.128;2022-08-25T05:36:16;10.07;;;8.87;;
15706;SDS011;7953;54.302;10.128;2022-08-25T05:38:44;8.60;;;7.60;;
15706;SDS011;7953;54.302;10.128;2022-08-25T05:41:12;11.13;;;7.90;;
15706;SDS011;7953;54.302;10.128;2022-08-25T05:43:41;10.47;;;8.00;;
15706;SDS011;7953;54.302;10.128;2022-08-25T05:46:10;10.07;;;7.67;;
15706;SDS011;7953;54.302;10.128;2022-08-25T05:48:37;9.60;;;7.57;;
15706;SDS011;7953;54.302;10.128;2022-08-25T05:51:07;9.40;;;7.40;;
15706;SDS011;7953;54.302;10.128;2022-08-25T05:53:36;9.47;;;6.70;;
15706;SDS011;7953;54.302;10.128;2022-08-25T05:56:04;10.10;;;7.23;;
15706;SDS011;7953;54.302;10.128;2022-08-25T05:58:31;9.30;;;6.83;;
15706;SDS011;7953;54.302;10.128;2022-08-25T06:00:59;8.27;;;6.77;;
15706;SDS011;7953;54.302;10.128;2022-08-25T06:03:47;9.53;;;6.27;;
15706;SDS011;7953;54.302;10.128;2022-08-25T06:06:15;13.17;;;6.30;;
15706;SDS011;7953;54.302;10.128;2022-08-25T06:08:42;8.63;;;6.60;;
15706;SDS011;7953;54.302;10.128;2022-08-25T06:11:09;8.90;;;6.47;;
15706;SDS011;7953;54.302;10.128;2022-08-25T06:13:36;7.57;;;6.57;;
15706;SDS011;7953;54.302;10.128;2022-08-25T06:16:04;8.53;;;5.83;;
15706;SDS011;7953;54.302;10.128;2022-08-25T06:18:31;9.17;;;5.80;;
15706;SDS011;7953;54.302;10.128;2022-08-25T06:20:58;9.70;;;6.30;;
15706;SDS011;7953;54.302;10.128;2022-08-25T06:23:33;9.67;;;6.63;;
15706;SDS011;7953;54.302;10.128;2022-08-25T06:26:00;7.50;;;6.00;;
15706;SDS011;7953;54.302;10.128;2022-08-25T06:28:27;8.83;;;6.10;;
15706;SDS011;7953;54.302;10.128;2022-08-25T06:30:56;6.10;;;5.60;;
15706;SDS011;7953;54.302;10.128;2022-08-25T06:33:24;8.27;;;5.17;;
15706;SDS011;7953;54.302;10.128;2022-08-25T06:35:52;8.10;;;6.07;;
15706;SDS011;7953;54.302;10.128;2022-08-25T06:38:19;6.13;;;5.47;;
15706;SDS011;7953;54.302;10.128;2022-08-25T06:40:47;6.67;;;5.37;;
15706;SDS011;7953;54.302;10.128;2022-08-25T06:43:16;6.57;;;5.87;;
15706;SDS011;7953;54.302;10.128;2022-08-25T06:45:43;6.47;;;5.87;;
15706;SDS011;7953;54.302;10.128;2022-08-25T06:48:10;10.00;;;5.80;;
15706;SDS011;7953;54.302;10.128;2022-08-25T06:50:37;8.27;;;5.77;;
15706;SDS011;7953;54.302;10.128;2022-08-25T06:53:05;7.73;;;5.57;;
15706;SDS011;7953;54.302;10.128;2022-08-25T06:55:32;8.50;;;5.50;;
15706;SDS011;7953;54.302;10.128;2022-08-25T06:58:01;9.97;;;5.67;;
15706;SDS011;7953;54.302;10.128;2022-08-25T07:00:29;8.30;;;5.77;;
15706;SDS011;7953;54.302;10.128;2022-08-25T07:02:56;6.00;;;5.33;;
15706;SDS011;7953;54.302;10.128;2022-08-25T07:05:25;5.63;;;4.87;;
15706;SDS011;7953;54.302;10.128;2022-08-25T07:07:52;11.07;;;5.67;;
15706;SDS011;7953;54.302;10.128;2022-08-25T07:10:20;6.27;;;5.43;;
15706;SDS011;7953;54.302;10.128;2022-08-25T07:12:47;9.10;;;4.93;;
15706;SDS011;7953;54.302;10.128;2022-08-25T07:15:16;6.47;;;4.97;;
15706;SDS011;7953;54.302;10.128;2022-08-25T07:17:43;5.37;;;4.70;;
15706;SDS011;7953;54.302;10.128;2022-08-25T07:20:10;7.17;;;5.27;;
15706;SDS011;7953;54.302;10.128;2022-08-25T07:22:37;5.83;;;4.43;;
15706;SDS011;7953;54.302;10.128;2022-08-25T07:25:05;8.93;;;5.10;;
15706;SDS011;7953;54.302;10.128;2022-08-25T07:27:32;6.93;;;4.87;;
15706;SDS011;7953;54.302;10.128;2022-08-25T07:29:59;6.57;;;4.03;;
15706;SDS011;7953;54.302;10.128;2022-08-25T07:32:27;5.70;;;4.73;;
15706;SDS011;7953;54.302;10.128;2022-08-25T07:34:54;6.13;;;4.60;;
15706;SDS011;7953;54.302;10.128;2022-08-25T07:37:44;7.47;;;4.10;;
15706;SDS011;7953;54.302;10.128;2022-08-25T07:40:14;7.10;;;4.30;;
15706;SDS011;7953;54.302;10.128;2022-08-25T07:42:42;5.00;;;4.13;;
15706;SDS011;7953;54.302;10.128;2022-08-25T07:45:10;7.43;;;4.83;;
15706;SDS011;7953;54.302;10.128;2022-08-25T07:47:39;8.90;;;4.17;;
15706;SDS011;7953;54.302;10.128;2022-08-25T07:50:07;8.13;;;4.17;;
15706;SDS011;7953;54.302;10.128;2022-08-25T07:52:35;6.10;;;4.50;;
15706;SDS011;7953;54.302;10.128;2022-08-25T07:55:03;7.90;;;5.03;;
15706;SDS011;7953;54.302;10.128;2022-08-25T07:57:30;5.43;;;4.03;;
15706;SDS011;7953;54.302;10.128;2022-08-25T07:59:57;8.63;;;4.00;;
15706;SDS011;7953;54.302;10.128;2022-08-25T08:02:24;5.97;;;3.93;;
15706;SDS011;7953;54.302;10.128;2022-08-25T08:04:53;5.93;;;3.53;;
15706;SDS011;7953;54.302;10.128;2022-08-25T08:07:20;4.57;;;3.70;;
15706;SDS011;7953;54.302;10.128;2022-08-25T08:09:48;4.23;;;3.67;;
15706;SDS011;7953;54.302;10.128;2022-08-25T08:12:16;4.33;;;3.87;;
15706;SDS011;7953;54.302;10.128;2022-08-25T08:14:43;5.83;;;3.97;;
15706;SDS011;7953;54.302;10.128;2022-08-25T08:17:10;4.70;;;3.90;;
15706;SDS011;7953;54.302;10.128;2022-08-25T08:19:38;3.97;;;3.23;;
15706;SDS011;7953;54.302;10.128;2022-08-25T08:22:07;4.50;;;3.83;;
15706;SDS011;7953;54.302;10.128;2022-08-25T08:24:36;9.57;;;4.17;;
15706;SDS011;7953;54.302;10.128;2022-08-25T08:27:03;5.77;;;3.70;;
15706;SDS011;7953;54.302;10.128;2022-08-25T08:29:32;6.63;;;3.90;;
15706;SDS011;7953;54.302;10.128;2022-08-25T08:31:59;6.00;;;3.23;;
15706;SDS011;7953;54.302;10.128;2022-08-25T08:34:27;5.60;;;3.57;;
15706;SDS011;7953;54.302;10.128;2022-08-25T08:36:54;3.90;;;3.60;;
15706;SDS011;7953;54.302;10.128;2022-08-25T08:39:23;4.83;;;3.53;;
15706;SDS011;7953;54.302;10.128;2022-08-25T08:41:58;4.90;;;3.13;;
15706;SDS011;7953;54.302;10.128;2022-08-25T08:44:44;6.63;;;3.73;;
15706;SDS011;7953;54.302;10.128;2022-08-25T08:47:36;5.97;;;3.63;;
15706;SDS011;7953;54.302;10.128;2022-08-25T08:50:17;4.37;;;3.23;;
15706;SDS011;7953;54.302;10.128;2022-08-25T08:52:54;4.50;;;3.07;;
15706;SDS011;7953;54.302;10.128;2022-08-25T08:55:27;4.53;;;3.10;;
15706;SDS011;7953;54.302;10.128;2022-08-25T08:57:57;4.13;;;2.80;;
15706;SDS011;7953;54.302;10.128;2022-08-25T09:00:25;6.40;;;3.50;;
15706;SDS011;7953;54.302;10.128;2022-08-25T09:02:55;4.23;;;2.97;;
15706;SDS011;7953;54.302;10.128;2022-08-25T09:05:27;4.50;;;3.13;;
15706;SDS011;7953;54.302;10.128;2022-08-25T09:07:58;3.63;;;3.20;;
15706;SDS011;7953;54.302;10.128;2022-08-25T09:10:37;5.17;;;3.10;;
15706;SDS011;7953;54.302;10.128;2022-08-25T09:13:13;3.97;;;2.97;;
15706;SDS011;7953;54.302;10.128;2022-08-25T09:15:47;4.27;;;3.33;;
15706;SDS011;7953;54.302;10.128;2022-08-25T09:18:48;6.17;;;2.80;;
15706;SDS011;7953;54.302;10.128;2022-08-25T09:21:20;5.07;;;3.20;;
15706;SDS011;7953;54.302;10.128;2022-08-25T09:23:59;5.40;;;3.33;;
15706;SDS011;7953;54.302;10.128;2022-08-25T09:26:38;5.63;;;3.70;;
15706;SDS011;7953;54.302;10.128;2022-08-25T09:29:11;4.87;;;3.30;;
15706;SDS011;7953;54.302;10.128;2022-08-25T09:31:40;6.93;;;3.50;;
15706;SDS011;7953;54.302;10.128;2022-08-25T09:34:10;4.43;;;2.73;;
15706;SDS011;7953;54.302;10.128;2022-08-25T09:36:38;5.10;;;3.23;;
15706;SDS011;7953;54.302;10.128;2022-08-25T09:39:05;4.38;;;3.22;;
15706;SDS011;7953;54.302;10.128;2022-08-25T09:41:34;7.03;;;3.63;;
15706;SDS011;7953;54.302;10.128;2022-08-25T09:44:16;5.67;;;3.30;;
15706;SDS011;7953;54.302;10.128;2022-08-25T09:46:54;5.43;;;3.40;;
15706;SDS011;7953;54.302;10.128;2022-08-25T09:49:30;8.00;;;3.65;;
15706;SDS011;7953;54.302;10.128;2022-08-25T09:52:22;5.65;;;3.20;;
15706;SDS011;7953;54.302;10.128;2022-08-25T09:54:52;3.45;;;2.63;;
15706;SDS011;7953;54.302;10.128;2022-08-25T09:57:28;3.38;;;2.75;;
15706;SDS011;7953;54.302;10.128;2022-08-25T10:00:08;5.90;;;2.92;;
15706;SDS011;7953;54.302;10.128;2022-08-25T10:02:37;5.95;;;3.08;;
15706;SDS011;7953;54.302;10.128;2022-08-25T10:05:16;5.28;;;2.65;;
15706;SDS011;7953;54.302;10.128;2022-08-25T10:07:48;4.03;;;2.55;;
15706;SDS011;7953;54.302;10.128;2022-08-25T10:10:21;4.35;;;2.65;;
15706;SDS011;7953;54.302;10.128;2022-08-25T10:12:52;3.90;;;2.70;;
15706;SDS011;7953;54.302;10.128;2022-08-25T10:15:23;5.18;;;2.97;;
15706;SDS011;7953;54.302;10.128;2022-08-25T10:17:52;4.45;;;2.75;;
15706;SDS011;7953;54.302;10.128;2022-08-25T10:20:21;5.28;;;2.63;;
15706;SDS011;7953;54.302;10.128;2022-08-25T10:22:49;7.47;;;2.88;;
15706;SDS011;7953;54.302;10.128;2022-08-25T10:25:20;4.00;;;2.53;;
15706;SDS011;7953;54.302;10.128;2022-08-25T10:27:56;5.30;;;2.92;;
15706;SDS011;7953;54.302;10.128;2022-08-25T10:30:40;6.07;;;2.58;;
15706;SDS011;7953;54.302;10.128;2022-08-25T10:33:18;7.28;;;2.88;;
15706;SDS011;7953;54.302;10.128;2022-08-25T10:35:56;7.50;;;3.15;;
15706;SDS011;7953;54.302;10.128;2022-08-25T10:38:29;4.10;;;2.65;;
15706;SDS011;7953;54.302;10.128;2022-08-25T10:41:06;3.95;;;2.70;;
15706;SDS011;7953;54.302;10.128;2022-08-25T10:43:47;3.13;;;2.70;;
15706;SDS011;7953;54.302;10.128;2022-08-25T10:46:20;6.88;;;3.00;;
15706;SDS011;7953;54.302;10.128;2022-08-25T10:48:56;6.05;;;3.10;;
15706;SDS011;7953;54.302;10.128;2022-08-25T10:54:19;5.10;;;3.20;;
15706;SDS011;7953;54.302;10.128;2022-08-25T10:56:57;5.57;;;3.28;;
15706;SDS011;7953;54.302;10.128;2022-08-25T10:59:44;6.10;;;3.03;;
15706;SDS011;7953;54.302;10.128;2022-08-25T11:02:23;3.92;;;2.80;;
15706;SDS011;7953;54.302;10.128;2022-08-25T11:05:07;6.25;;;2.25;;
15706;SDS011;7953;54.302;10.128;2022-08-25T11:07:39;5.82;;;2.95;;
15706;SDS011;7953;54.302;10.128;2022-08-25T11:10:11;5.50;;;3.20;;
15706;SDS011;7953;54.302;10.128;2022-08-25T11:12:43;11.05;;;3.85;;
15706;SDS011;7953;54.302;10.128;2022-08-25T11:15:16;5.90;;;3.28;;
15706;SDS011;7953;54.302;10.128;2022-08-25T11:17:49;6.35;;;3.17;;
15706;SDS011;7953;54.302;10.128;2022-08-25T11:20:20;6.53;;;3.50;;
15706;SDS011;7953;54.302;10.128;2022-08-25T11:22:49;6.63;;;2.67;;
15706;SDS011;7953;54.302;10.128;2022-08-25T11:25:21;5.78;;;3.05;;
15706;SDS011;7953;54.302;10.128;2022-08-25T11:27:54;3.92;;;3.45;;
15706;SDS011;7953;54.302;10.128;2022-08-25T11:30:27;5.05;;;3.30;;
15706;SDS011;7953;54.302;10.128;2022-08-25T11:32:54;4.45;;;2.72;;
15706;SDS011;7953;54.302;10.128;2022-08-25T11:35:25;5.32;;;3.30;;
15706;SDS011;7953;54.302;10.128;2022-08-25T11:43:48;5.68;;;2.95;;
15706;SDS011;7953;54.302;10.128;2022-08-25T11:46:37;5.57;;;3.72;;
15706;SDS011;7953;54.302;10.128;2022-08-25T11:49:19;5.68;;;3.78;;
15706;SDS011;7953;54.302;10.128;2022-08-25T11:52:00;3.90;;;2.72;;
15706;SDS011;7953;54.302;10.128;2022-08-25T11:54:27;4.97;;;3.30;;
15706;SDS011;7953;54.302;10.128;2022-08-25T11:57:00;5.13;;;3.13;;
15706;SDS011;7953;54.302;10.128;2022-08-25T12:02:38;5.53;;;3.28;;
15706;SDS011;7953;54.302;10.128;2022-08-25T12:05:07;5.20;;;3.17;;
15706;SDS011;7953;54.302;10.128;2022-08-25T12:10:52;5.47;;;3.25;;
15706;SDS011;7953;54.302;10.128;2022-08-25T12:13:25;4.47;;;3.17;;
15706;SDS011;7953;54.302;10.128;2022-08-25T12:16:03;6.95;;;3.42;;
15706;SDS011;7953;54.302;10.128;2022-08-25T12:18:43;4.38;;;3.63;;
15706;SDS011;7953;54.302;10.128;2022-08-25T12:21:14;7.03;;;3.67;;
15706;SDS011;7953;54.302;10.128;2022-08-25T12:24:12;5.57;;;3.42;;
15706;SDS011;7953;54.302;10.128;2022-08-25T12:26:43;6.78;;;3.78;;
15706;SDS011;7953;54.302;10.128;2022-08-25T12:29:19;6.82;;;3.35;;
15706;SDS011;7953;54.302;10.128;2022-08-25T12:38:00;4.32;;;3.70;;
15706;SDS011;7953;54.302;10.128;2022-08-25T12:40:33;6.82;;;3.60;;
15706;SDS011;7953;54.302;10.128;2022-08-25T12:43:04;5.15;;;3.47;;
15706;SDS011;7953;54.302;10.128;2022-08-25T12:45:35;7.53;;;3.78;;
15706;SDS011;7953;54.302;10.128;2022-08-25T12:51:07;5.45;;;3.40;;
15706;SDS011;7953;54.302;10.128;2022-08-25T12:53:41;3.80;;;3.40;;
15706;SDS011;7953;54.302;10.128;2022-08-25T12:56:15;9.68;;;3.53;;
15706;SDS011;7953;54.302;10.128;2022-08-25T12:58:47;5.05;;;2.90;;
15706;SDS011;7953;54.302;10.128;2022-08-25T13:01:20;4.57;;;3.55;;
15706;SDS011;7953;54.302;10.128;2022-08-25T13:07:01;6.05;;;3.60;;
15706;SDS011;7953;54.302;10.128;2022-08-25T13:12:54;3.60;;;3.17;;
15706;SDS011;7953;54.302;10.128;2022-08-25T13:15:32;6.10;;;3.22;;
15706;SDS011;7953;54.302;10.128;2022-08-25T13:18:14;5.03;;;2.90;;
15706;SDS011;7953;54.302;10.128;2022-08-25T13:20:45;6.38;;;3.15;;
15706;SDS011;7953;54.302;10.128;2022-08-25T13:23:16;5.18;;;2.80;;
15706;SDS011;7953;54.302;10.128;2022-08-25T13:25:48;4.03;;;3.30;;
15706;SDS011;7953;54.302;10.128;2022-08-25T13:28:20;5.40;;;3.20;;
15706;SDS011;7953;54.302;10.128;2022-08-25T13:31:01;3.85;;;2.85;;
15706;SDS011;7953;54.302;10.128;2022-08-25T13:33:31;5.25;;;2.83;;
15706;SDS011;7953;54.302;10.128;2022-08-25T13:36:03;6.45;;;3.35;;
15706;SDS011;7953;54.302;10.128;2022-08-25T13:38:48;6.35;;;2.70;;
15706;SDS011;7953;54.302;10.128;2022-08-25T13:41:16;6.10;;;3.40;;
15706;SDS011;7953;54.302;10.128;2022-08-25T13:43:50;5.22;;;3.35;;
15706;SDS011;7953;54.302;10.128;2022-08-25T13:46:20;7.07;;;2.97;;
15706;SDS011;7953;54.302;10.128;2022-08-25T13:48:47;4.47;;;2.95;;
15706;SDS011;7953;54.302;10.128;2022-08-25T13:51:17;4.45;;;3.60;;
15706;SDS011;7953;54.302;10.128;2022-08-25T13:53:52;8.55;;;3.03;;
15706;SDS011;7953;54.302;10.128;2022-08-25T13:56:24;3.80;;;2.65;;
15706;SDS011;7953;54.302;10.128;2022-08-25T13:58:54;5.43;;;3.05;;
15706;SDS011;7953;54.302;10.128;2022-08-25T14:01:23;6.10;;;3.10;;
15706;SDS011;7953;54.302;10.128;2022-08-25T14:03:53;6.90;;;3.10;;
15706;SDS011;7953;54.302;10.128;2022-08-25T14:06:22;4.18;;;3.00;;
15706;SDS011;7953;54.302;10.128;2022-08-25T14:09:05;5.88;;;3.10;;
15706;SDS011;7953;54.302;10.128;2022-08-25T14:11:41;5.88;;;3.35;;
15706;SDS011;7953;54.302;10.128;2022-08-25T14:14:10;7.50;;;3.58;;
15706;SDS011;7953;54.302;10.128;2022-08-25T14:16:57;5.97;;;2.63;;
15706;SDS011;7953;54.302;10.128;2022-08-25T14:19:25;14.63;;;3.42;;
15706;SDS011;7953;54.302;10.128;2022-08-25T14:21:53;6.07;;;3.10;;
15706;SDS011;7953;54.302;10.128;2022-08-25T14:24:25;5.53;;;3.00;;
15706;SDS011;7953;54.302;10.128;2022-08-25T14:26:52;6.82;;;3.33;;
15706;SDS011;7953;54.302;10.128;2022-08-25T14:29:19;5.35;;;2.90;;
15706;SDS011;7953;54.302;10.128;2022-08-25T14:31:46;7.07;;;2.88;;
15706;SDS011;7953;54.302;10.128;2022-08-25T14:34:14;5.03;;;3.00;;
15706;SDS011;7953;54.302;10.128;2022-08-25T14:36:44;5.97;;;3.20;;
15706;SDS011;7953;54.302;10.128;2022-08-25T14:39:12;3.97;;;3.25;;
15706;SDS011;7953;54.302;10.128;2022-08-25T14:41:41;7.95;;;3.30;;
15706;SDS011;7953;54.302;10.128;2022-08-25T14:44:10;5.13;;;3.38;;
15706;SDS011;7953;54.302;10.128;2022-08-25T14:46:39;8.32;;;3.55;;
15706;SDS011;7953;54.302;10.128;2022-08-25T14:49:08;5.68;;;3.13;;
15706;SDS011;7953;54.302;10.128;2022-08-25T14:51:40;4.72;;;3.15;;
15706;SDS011;7953;54.302;10.128;2022-08-25T14:54:09;5.60;;;3.50;;
15706;SDS011;7953;54.302;10.128;2022-08-25T14:56:39;5.22;;;2.78;;
15706;SDS011;7953;54.302;10.128;2022-08-25T14:59:07;6.40;;;3.45;;
15706;SDS011;7953;54.302;10.128;2022-08-25T15:01:34;7.63;;;3.70;;
15706;SDS011;7953;54.302;10.128;2022-08-25T15:04:02;5.97;;;3.38;;
15706;SDS011;7953;54.302;10.128;2022-08-25T15:06:32;7.65;;;3.10;;
15706;SDS011;7953;54.302;10.128;2022-08-25T15:09:00;5.72;;;3.00;;
15706;SDS011;7953;54.302;10.128;2022-08-25T15:11:34;7.28;;;3.10;;
15706;SDS011;7953;54.302;10.128;2022-08-25T15:14:04;6.03;;;3.10;;
15706;SDS011;7953;54.302;10.128;2022-08-25T15:16:32;7.43;;;3.40;;
15706;SDS011;7953;54.302;10.128;2022-08-25T15:19:02;6.78;;;3.17;;
15706;SDS011;7953;54.302;10.128;2022-08-25T15:21:30;5.93;;;3.05;;
15706;SDS011;7953;54.302;10.128;2022-08-25T15:23:57;8.88;;;3.63;;
15706;SDS011;7953;54.302;10.128;2022-08-25T15:26:25;5.65;;;2.80;;
15706;SDS011;7953;54.302;10.128;2022-08-25T15:28:52;4.10;;;3.03;;
15706;SDS011;7953;54.302;10.128;2022-08-25T15:31:21;8.30;;;3.70;;
15706;SDS011;7953;54.302;10.128;2022-08-25T15:33:48;6.78;;;3.15;;
15706;SDS011;7953;54.302;10.128;2022-08-25T15:36:16;4.47;;;3.28;;
15706;SDS011;7953;54.302;10.128;2022-08-25T15:38:46;4.63;;;3.13;;